Time;durP1;ratioP1;P1;durP2;ratioP2;P2;SDS_P1;SDS_P2;PMS_P1;PMS_P2;Temp;Humidity;BMP_temperature;BMP_pressure;BME280_temperature;BME280_humidity;BME280_pressure;Samples;Min_cycle;Max_cycle;Signal;HPM_P1;HPM_P2
2022/05/29 00:00:00;;;;;;;2.50;1.00;;;;;;;8.48;72.20;100239.41;5073319;28;20475;-75
2022/05/29 00:02:26;;;;;;;3.72;0.95;;;;;;;8.50;71.96;100234.69;5055595;28;20055;-73
2022/05/29 00:04:51;;;;;;;4.67;2.00;;;;;;;8.45;71.91;100237.94;5073264;28;20155;-74
2022/05/29 00:07:19;;;;;;;4.68;1.60;;;;;;;8.45;72.65;100231.75;5073839;28;20097;-74
2022/05/29 00:09:47;;;;;;;5.30;1.35;;;;;;;8.42;72.82;100232.16;5056460;28;20040;-74
2022/05/29 00:12:16;;;;;;;4.70;1.20;;;;;;;8.47;72.77;100235.06;5073315;28;20028;-75
2022/05/29 00:14:42;;;;;;;5.20;1.45;;;;;;;8.50;72.43;100232.00;5074154;28;20052;-75
2022/05/29 00:17:10;;;;;;;6.05;1.42;;;;;;;8.48;73.28;100231.34;5072277;28;20032;-75
2022/05/29 00:19:47;;;;;;;4.72;1.20;;;;;;;8.66;72.55;100226.31;5073144;28;20052;-75
2022/05/29 00:22:19;;;;;;;3.25;0.90;;;;;;;8.67;72.12;100228.81;5073113;28;20128;-74
2022/05/29 00:24:47;;;;;;;5.07;1.10;;;;;;;8.57;72.97;100227.50;5073103;28;20028;-74
2022/05/29 00:27:18;;;;;;;4.78;1.10;;;;;;;8.43;73.60;100217.69;5072272;28;20103;-75
2022/05/29 00:29:44;;;;;;;5.80;1.50;;;;;;;8.39;74.19;100222.63;5056912;28;20021;-75
2022/05/29 00:32:13;;;;;;;2.00;0.93;;;;;;;8.33;74.38;100221.56;5073361;28;20089;-74
2022/05/29 00:34:44;;;;;;;2.80;1.05;;;;;;;8.40;74.81;100216.25;5071382;28;20055;-74
2022/05/29 00:37:13;;;;;;;4.13;1.20;;;;;;;8.39;74.78;100219.94;5073268;28;20031;-75
2022/05/29 00:39:39;;;;;;;6.57;1.20;;;;;;;8.55;74.65;100219.63;5073192;28;20056;-74
2022/05/29 00:42:13;;;;;;;4.63;1.42;;;;;;;8.60;74.07;100222.53;5072823;28;20096;-74
2022/05/29 00:44:39;;;;;;;3.50;1.30;;;;;;;8.66;74.59;100210.19;5073743;28;20519;-75
2022/05/29 00:47:19;;;;;;;3.25;1.10;;;;;;;8.77;73.94;100200.78;5073032;28;20100;-74
2022/05/29 00:49:47;;;;;;;3.20;0.90;;;;;;;8.67;74.19;100204.63;5073161;28;20033;-75
2022/05/29 00:52:23;;;;;;;4.13;1.40;;;;;;;8.62;74.78;100215.13;5071652;28;20082;-74
2022/05/29 00:54:55;;;;;;;4.50;1.48;;;;;;;8.55;75.14;100206.22;5055645;28;20051;-75
2022/05/29 00:57:28;;;;;;;2.28;0.93;;;;;;;8.65;74.92;100198.63;5073183;28;20040;-75
2022/05/29 01:00:08;;;;;;;3.53;1.23;;;;;;;8.60;74.75;100210.97;5073841;28;20119;-75
2022/05/29 01:02:33;;;;;;;4.85;0.98;;;;;;;8.57;75.69;100198.78;5072938;28;20032;-74
2022/05/29 01:05:09;;;;;;;;;;;;;;;;;;;;;
2022/05/29 01:07:38;;;;;;;4.80;1.27;;;;;;;8.34;76.58;100200.91;5077720;28;20031;-73
2022/05/29 01:10:06;;;;;;;2.83;1.10;;;;;;;8.22;77.42;100202.44;5077231;28;20356;-74
2022/05/29 01:12:42;;;;;;;3.97;1.30;;;;;;;8.25;77.47;100191.28;5076373;28;20057;-74
2022/05/29 01:15:22;;;;;;;3.57;1.07;;;;;;;8.12;77.74;100200.09;5076285;28;20081;-74
2022/05/29 01:18:14;;;;;;;3.17;1.00;;;;;;;8.12;78.33;100192.03;5057701;28;20052;-74
2022/05/29 01:20:55;;;;;;;6.55;1.15;;;;;;;8.07;79.07;100197.13;5074783;28;20040;-75
2022/05/29 01:23:41;;;;;;;2.83;1.35;;;;;;;8.00;79.36;100194.44;5074580;28;20536;-74
2022/05/29 01:26:25;;;;;;;4.65;1.30;;;;;;;7.87;80.40;100188.94;5075986;28;20442;-74
2022/05/29 01:28:56;;;;;;;5.13;1.80;;;;;;;7.85;80.80;100196.34;5076114;28;20115;-74
2022/05/29 01:31:37;;;;;;;2.95;1.35;;;;;;;7.79;81.22;100191.75;5075822;28;20033;-74
2022/05/29 01:34:27;;;;;;;4.80;1.20;;;;;;;7.74;81.67;100190.66;5075476;28;20498;-74
2022/05/29 01:37:10;;;;;;;4.53;1.55;;;;;;;7.74;82.17;100179.94;5075870;28;20028;-75
2022/05/29 01:39:45;;;;;;;3.90;1.90;;;;;;;7.86;81.55;100192.66;5075567;28;20041;-74
2022/05/29 01:42:22;;;;;;;5.05;1.30;;;;;;;7.99;81.20;100181.19;5075344;28;20194;-74
2022/05/29 01:45:01;;;;;;;7.40;2.17;;;;;;;8.08;80.16;100177.34;5057693;28;20051;-74
2022/05/29 01:47:37;;;;;;;3.33;1.42;;;;;;;8.07;81.15;100170.31;5075324;28;20033;-74
2022/05/29 01:50:09;;;;;;;5.50;1.15;;;;;;;7.87;81.72;100175.53;5075777;28;20324;-75
2022/05/29 01:52:56;;;;;;;5.97;1.38;;;;;;;7.93;81.43;100172.06;5075194;28;20036;-74
2022/05/29 01:55:32;;;;;;;5.60;1.25;;;;;;;7.96;81.69;100165.47;5075085;28;20059;-75
2022/05/29 01:58:06;;;;;;;4.50;1.75;;;;;;;7.99;81.40;100165.09;5074955;28;20037;-74
2022/05/29 02:00:37;;;;;;;4.10;1.15;;;;;;;8.11;80.95;100166.22;5075303;28;20028;-75
2022/05/29 02:03:08;;;;;;;5.28;1.80;;;;;;;8.11;81.02;100158.16;5075008;28;20028;-74
2022/05/29 02:05:56;;;;;;;3.42;1.20;;;;;;;8.11;81.45;100157.34;5075049;28;20095;-74
2022/05/29 02:08:27;;;;;;;3.60;1.15;;;;;;;8.08;81.00;100155.03;5075100;28;20025;-74
2022/05/29 02:11:05;;;;;;;3.65;1.30;;;;;;;8.09;80.98;100156.69;5074511;28;20504;-74
2022/05/29 02:13:46;;;;;;;5.40;1.42;;;;;;;8.07;80.70;100153.38;5074626;28;20064;-75
2022/05/29 02:16:16;;;;;;;3.40;1.27;;;;;;;8.02;81.14;100153.97;5056835;28;20081;-73
2022/05/29 02:19:19;;;;;;;4.93;1.25;;;;;;;8.04;81.53;100151.09;5074248;28;20463;-73
2022/05/29 02:21:59;;;;;;;3.22;1.23;;;;;;;7.95;81.94;100153.91;5061814;28;20044;-74
2022/05/29 02:24:32;;;;;;;4.53;1.23;;;;;;;7.95;81.60;100153.91;5056661;28;20034;-75
2022/05/29 02:27:36;;;;;;;3.47;1.23;;;;;;;7.98;81.26;100148.16;5056550;28;20037;-73
2022/05/29 02:30:04;;;;;;;6.00;1.58;;;;;;;7.96;81.79;100149.38;5033404;28;20535;-75
2022/05/29 02:32:38;;;;;;;2.28;1.10;;;;;;;7.95;82.22;100145.88;5073847;28;20490;-74
2022/05/29 02:35:24;;;;;;;2.55;1.20;;;;;;;7.90;81.99;100148.31;5074121;28;20024;-74
2022/05/29 02:37:53;;;;;;;3.65;1.15;;;;;;;7.87;82.42;100140.66;5074477;28;20510;-74
2022/05/29 02:40:28;;;;;;;4.85;1.27;;;;;;;7.82;82.19;100135.03;5074475;28;20025;-74
2022/05/29 02:43:10;;;;;;;4.60;1.42;;;;;;;7.77;82.74;100134.78;5073044;28;20360;-75
2022/05/29 02:45:46;;;;;;;4.93;1.33;;;;;;;7.75;82.55;100131.47;5074050;28;20099;-74
2022/05/29 02:48:17;;;;;;;5.57;1.75;;;;;;;7.72;82.74;100126.47;5074164;28;20077;-74
2022/05/29 02:51:01;;;;;;;5.25;1.30;;;;;;;7.66;83.41;100125.44;5073972;28;20166;-74
2022/05/29 02:53:26;;;;;;;6.13;1.42;;;;;;;7.66;83.21;100121.91;5073769;28;20020;-74
2022/05/29 02:55:53;;;;;;;6.00;1.35;;;;;;;7.69;83.11;100121.53;5073785;28;20062;-74
2022/05/29 02:58:30;;;;;;;3.42;1.15;;;;;;;7.63;83.72;100124.97;5074329;28;20044;-74
2022/05/29 03:01:10;;;;;;;3.75;1.58;;;;;;;7.60;84.22;100122.69;5073689;28;20028;-74
2022/05/29 03:04:00;;;;;;;2.55;1.10;;;;;;;7.57;84.18;100128.41;5073952;28;20033;-74
2022/05/29 03:06:47;;;;;;;5.15;1.40;;;;;;;7.56;83.70;100127.59;5055635;28;20101;-74
2022/05/29 03:09:35;;;;;;;3.03;1.30;;;;;;;7.56;83.77;100122.22;5055936;28;20032;-74
2022/05/29 03:12:11;;;;;;;4.78;1.58;;;;;;;7.51;84.08;100123.84;5073794;28;20036;-74
2022/05/29 03:14:41;;;;;;;;;;;;;;;7.42;85.27;100124.97;5074975;28;20035;-75
2022/05/29 03:17:41;;;;;;;5.15;1.75;;;;;;;7.42;84.84;100119.63;5056114;28;19931;-75
2022/05/29 03:20:17;;;;;;;5.63;1.95;;;;;;;7.41;85.02;100117.97;5073457;28;20037;-74
2022/05/29 03:22:53;;;;;;;6.57;2.15;;;;;;;7.50;84.91;100112.28;5073812;28;20029;-74
2022/05/29 03:25:25;;;;;;;4.60;2.40;;;;;;;7.52;84.82;100109.44;5073726;28;20040;-75
2022/05/29 03:27:55;;;;;;;6.47;1.83;;;;;;;7.53;84.53;100116.41;5073244;28;20036;-74
2022/05/29 03:30:27;;;;;;;6.88;2.10;;;;;;;7.48;84.84;100118.88;5072653;28;20550;-74
2022/05/29 03:32:57;;;;;;;6.68;2.22;;;;;;;7.46;84.99;100121.72;5072852;28;20127;-74
2022/05/29 03:35:27;;;;;;;5.15;2.10;;;;;;;7.50;84.93;100120.34;5055278;28;20041;-75
2022/05/29 03:37:54;;;;;;;4.63;2.13;;;;;;;7.53;85.25;100127.13;5073472;28;20033;-75
2022/05/29 03:40:32;;;;;;;4.18;1.60;;;;;;;7.61;85.01;100119.81;5055481;28;20047;-75
2022/05/29 03:42:57;;;;;;;6.95;2.42;;;;;;;7.61;84.37;100119.81;5073364;28;20490;-74
2022/05/29 03:45:23;;;;;;;9.20;2.55;;;;;;;7.65;84.70;100121.09;5073333;28;20028;-75
2022/05/29 03:47:49;;;;;;;;;;;;;;;7.61;85.04;100118.97;5073513;28;20483;-75
2022/05/29 03:50:18;;;;;;;5.80;1.80;;;;;;;7.62;85.09;100116.09;5073322;28;19954;-75
2022/05/29 03:52:45;;;;;;;7.60;2.28;;;;;;;7.64;84.96;100123.97;5054999;28;20270;-75
2022/05/29 03:55:14;;;;;;;5.45;2.08;;;;;;;7.69;85.36;100120.69;5073299;28;20170;-75
2022/05/29 03:57:40;;;;;;;5.95;2.22;;;;;;;7.64;85.16;100115.91;5055127;28;20085;-74
2022/05/29 04:00:09;;;;;;;11.15;2.80;;;;;;;7.62;85.27;100112.59;5073123;28;20488;-74
2022/05/29 04:02:40;;;;;;;12.18;2.78;;;;;;;7.62;85.26;100112.59;5072991;28;20114;-75
2022/05/29 04:05:07;;;;;;;7.20;2.30;;;;;;;7.65;84.91;100105.00;5072949;28;20082;-75
2022/05/29 04:13:14;;;;;;;7.72;2.70;;;;;;;7.68;85.18;100101.09;5039084;28;20063;-75
2022/05/29 04:15:45;;;;;;;7.43;2.22;;;;;;;7.70;85.34;100111.63;5072846;28;20037;-74
2022/05/29 04:18:30;;;;;;;5.25;2.17;;;;;;;7.66;85.49;100103.16;5073127;28;20040;-74
2022/05/29 04:20:56;;;;;;;4.35;1.80;;;;;;;7.71;85.53;100105.22;5072141;28;20048;-75
2022/05/29 04:23:25;;;;;;;5.60;2.13;;;;;;;7.67;85.41;100099.44;5073514;28;20515;-74
2022/05/29 04:25:50;;;;;;;6.18;2.35;;;;;;;7.73;85.03;100089.78;5072498;28;20032;-75
2022/05/29 04:28:17;;;;;;;6.45;2.85;;;;;;;7.79;85.19;100083.63;5072894;28;20039;-75
2022/05/29 04:30:55;;;;;;;7.03;2.00;;;;;;;7.82;84.89;100093.97;5072686;28;20037;-74
2022/05/29 04:33:22;;;;;;;4.20;1.80;;;;;;;7.85;84.99;100089.06;5072150;28;20084;-74
2022/05/29 04:35:53;;;;;;;5.68;1.83;;;;;;;7.83;84.79;100096.47;5071082;28;20028;-75
2022/05/29 04:38:20;;;;;;;4.63;2.17;;;;;;;7.81;84.66;100089.63;5072807;28;20040;-76
2022/05/29 04:40:46;;;;;;;6.85;1.92;;;;;;;7.89;84.77;100086.78;5074869;28;20029;-75
2022/05/29 04:43:37;;;;;;;5.40;1.60;;;;;;;7.91;84.52;100084.75;5058284;28;20028;-74
2022/05/29 04:46:03;;;;;;;5.47;2.00;;;;;;;7.88;84.89;100085.16;5076499;28;20036;-74
2022/05/29 04:48:29;;;;;;;6.47;1.95;;;;;;;7.92;84.64;100078.34;5076181;28;20024;-74
2022/05/29 04:50:59;;;;;;;5.05;1.77;;;;;;;7.98;84.47;100082.94;5076088;28;20043;-74
2022/05/29 04:53:29;;;;;;;4.45;1.80;;;;;;;7.99;84.08;100079.25;5076694;28;20056;-75
2022/05/29 04:55:56;;;;;;;5.28;2.08;;;;;;;7.96;83.96;100080.47;5076332;28;20039;-75
2022/05/29 04:58:26;;;;;;;5.50;1.90;;;;;;;7.94;84.10;100081.69;5076432;28;20035;-75
2022/05/29 05:01:00;;;;;;;4.88;1.58;;;;;;;7.94;84.46;100079.00;5057971;28;20029;-75
2022/05/29 05:03:26;;;;;;;5.47;1.67;;;;;;;7.87;86.08;100078.13;5075913;28;20043;-75
2022/05/29 05:05:55;;;;;;;4.68;1.90;;;;;;;7.87;88.07;100076.28;5074591;28;20040;-74
2022/05/29 05:08:20;;;;;;;6.18;2.20;;;;;;;7.82;89.13;100073.34;5075801;28;20035;-74
2022/05/29 05:10:46;;;;;;;4.68;2.10;;;;;;;7.78;90.11;100077.44;5076140;28;20040;-74
2022/05/29 05:13:12;;;;;;;5.50;2.30;;;;;;;7.75;89.72;100068.94;5075801;28;20033;-75
2022/05/29 05:15:40;;;;;;;5.40;2.05;;;;;;;7.77;90.38;100074.94;5074577;28;20035;-75
2022/05/29 05:18:06;;;;;;;5.63;1.98;;;;;;;7.74;90.75;100070.81;5075797;28;20028;-76
2022/05/29 05:20:35;;;;;;;5.38;1.98;;;;;;;7.71;90.17;100076.56;5075773;28;20028;-76
2022/05/29 05:23:01;;;;;;;4.78;1.98;;;;;;;7.63;91.57;100069.50;5074430;28;20037;-76
2022/05/29 05:25:26;;;;;;;;;;;;;;;7.63;91.54;100074.88;5076065;28;20028;-75
2022/05/29 05:27:51;;;;;;;4.95;1.80;;;;;;;7.58;91.90;100069.25;5075549;28;20369;-74
2022/05/29 05:30:17;;;;;;;6.30;1.80;;;;;;;7.62;93.46;100075.88;5075795;28;20029;-74
2022/05/29 05:32:42;;;;;;;6.90;2.30;;;;;;;7.51;93.02;100079.09;5075306;28;20262;-75
2022/05/29 05:35:08;;;;;;;4.23;1.80;;;;;;;7.52;93.29;100069.22;5075813;28;20478;-74
2022/05/29 05:37:36;;;;;;;8.52;2.35;;;;;;;7.53;94.20;100074.34;5074284;28;20115;-75
2022/05/29 05:40:07;;;;;;;5.07;2.00;;;;;;;7.50;93.91;100071.25;5075355;28;20448;-75
2022/05/29 05:42:33;;;;;;;8.23;2.90;;;;;;;7.56;94.25;100068.59;5075189;28;20029;-75
2022/05/29 05:44:58;;;;;;;6.07;2.50;;;;;;;7.59;93.97;100078.13;5075351;28;20525;-75
2022/05/29 05:47:24;;;;;;;7.63;2.43;;;;;;;7.65;94.53;100074.66;5075495;28;20039;-75
2022/05/29 05:49:50;;;;;;;6.80;2.22;;;;;;;7.80;94.95;100078.09;5075733;28;20250;-75
2022/05/29 05:52:17;;;;;;;6.32;2.20;;;;;;;7.78;94.74;100071.25;5074750;28;20032;-75
2022/05/29 05:54:43;;;;;;;6.57;2.05;;;;;;;7.78;94.60;100079.28;5075115;28;20043;-76
2022/05/29 05:57:08;;;;;;;;;;;;;;;7.83;94.70;100072.34;5075698;28;20082;-75
2022/05/29 05:59:38;;;;;;;5.68;2.15;;;;;;;7.91;95.37;100076.69;5075237;28;19971;-75
2022/05/29 06:02:07;;;;;;;9.57;2.05;;;;;;;7.98;94.64;100066.84;5075343;28;20056;-75
2022/05/29 06:04:32;;;;;;;4.40;2.40;;;;;;;8.05;94.42;100066.91;5075176;28;20024;-75
2022/05/29 06:06:58;;;;;;;7.60;2.20;;;;;;;8.10;94.21;100064.44;5075372;28;20032;-75
2022/05/29 06:09:23;;;;;;;6.27;2.40;;;;;;;8.22;94.53;100057.50;5074829;28;20041;-75
2022/05/29 06:11:48;;;;;;;8.83;2.73;;;;;;;8.25;93.03;100065.13;5074953;28;20478;-75
2022/05/29 06:14:14;;;;;;;7.63;2.83;;;;;;;8.26;94.11;100066.78;5074716;28;20158;-75
2022/05/29 06:16:39;;;;;;;5.78;3.10;;;;;;;8.29;93.88;100069.91;5073652;28;20299;-75
2022/05/29 06:19:06;;;;;;;7.20;2.70;;;;;;;8.32;93.61;100071.41;5074886;28;20123;-76
2022/05/29 06:21:32;;;;;;;9.38;2.63;;;;;;;8.42;93.01;100066.50;5074694;28;20028;-75
2022/05/29 06:23:57;;;;;;;;;;;;;;;8.43;93.12;100070.84;5075312;28;20347;-76
2022/05/29 06:26:22;;;;;;;7.07;2.70;;;;;;;8.62;93.49;100074.63;5074891;28;19909;-76
2022/05/29 06:28:48;;;;;;;6.00;2.70;;;;;;;8.65;93.64;100061.63;5074348;28;20060;-76
2022/05/29 06:31:13;;;;;;;8.80;3.53;;;;;;;8.87;93.29;100069.56;5074356;28;20379;-76
2022/05/29 06:33:39;;;;;;;13.35;4.95;;;;;;;8.97;92.68;100070.00;5074360;28;20089;-76
2022/05/29 06:36:19;;;;;;;10.90;4.35;;;;;;;9.13;91.28;100058.91;5074396;28;20515;-75
2022/05/29 06:38:45;;;;;;;10.75;3.50;;;;;;;9.15;90.48;100064.03;5073628;28;20452;-75
2022/05/29 06:41:12;;;;;;;12.98;4.25;;;;;;;9.43;91.71;100061.19;5075298;28;20025;-76
2022/05/29 06:43:38;;;;;;;11.50;4.30;;;;;;;9.38;91.33;100064.50;5074073;28;20039;-76
2022/05/29 06:46:05;;;;;;;11.85;4.57;;;;;;;9.49;91.21;100066.59;5073923;28;20024;-76
2022/05/29 06:48:33;;;;;;;11.57;4.80;;;;;;;9.49;90.63;100063.91;5074219;28;20034;-76
2022/05/29 06:51:06;;;;;;;10.60;4.68;;;;;;;9.58;90.89;100061.81;5073769;28;20037;-76
2022/05/29 06:53:32;;;;;;;10.90;3.90;;;;;;;9.70;89.73;100063.66;5074016;28;20028;-76
2022/05/29 06:55:57;;;;;;;12.95;5.30;;;;;;;9.73;88.39;100059.72;5074062;28;20378;-76
2022/05/29 06:58:23;;;;;;;11.30;4.90;;;;;;;9.72;88.47;100064.28;5073937;28;20584;-76
2022/05/29 07:09:01;;;;;;;17.40;6.70;;;;;;;9.62;88.36;100068.44;5073620;28;20524;-76
2022/05/29 07:11:30;;;;;;;15.57;6.32;;;;;;;9.76;88.79;100067.38;5073813;28;20020;-76
2022/05/29 07:13:57;;;;;;;12.85;6.05;;;;;;;9.75;87.88;100071.13;5073548;28;20035;-76
2022/05/29 07:16:22;;;;;;;16.08;7.43;;;;;;;9.77;88.43;100058.28;5073354;28;20085;-76
2022/05/29 07:18:50;;;;;;;11.37;5.87;;;;;;;9.97;88.05;100064.47;5073446;28;20033;-76
2022/05/29 07:21:16;;;;;;;14.98;6.20;;;;;;;10.03;88.20;100057.44;5073380;28;20043;-76
2022/05/29 07:23:43;;;;;;;14.90;6.25;;;;;;;9.95;88.15;100054.94;5073350;28;20087;-76
2022/05/29 07:26:08;;;;;;;11.05;5.78;;;;;;;9.77;87.29;100057.47;5055269;28;20043;-76
2022/05/29 07:28:34;;;;;;;13.98;5.82;;;;;;;9.72;88.41;100048.13;5073050;28;20028;-76
2022/05/29 07:30:59;;;;;;;16.93;6.10;;;;;;;9.78;88.57;100057.25;5072885;28;20132;-76
2022/05/29 07:33:25;;;;;;;14.00;6.17;;;;;;;9.92;89.53;100050.81;5072625;28;20308;-76
2022/05/29 07:35:51;;;;;;;13.18;5.85;;;;;;;9.94;88.78;100055.97;5072994;28;20056;-76
2022/05/29 07:38:16;;;;;;;14.80;6.32;;;;;;;9.89;87.76;100050.41;5071917;28;20390;-76
2022/05/29 07:40:42;;;;;;;13.57;5.40;;;;;;;10.07;88.11;100050.56;5072833;28;20032;-76
2022/05/29 07:43:19;;;;;;;10.00;5.00;;;;;;;10.34;86.84;100057.59;5055118;28;20309;-76
2022/05/29 07:45:46;;;;;;;10.13;4.30;;;;;;;10.38;83.52;100055.28;5072857;28;20024;-76
2022/05/29 07:48:13;;;;;;;8.90;3.38;;;;;;;10.66;81.88;100052.28;5072915;28;20020;-77
2022/05/29 07:50:39;;;;;;;8.30;3.00;;;;;;;10.87;81.30;100051.97;5072711;28;20467;-77
2022/05/29 07:53:04;;;;;;;7.47;3.15;;;;;;;10.94;81.47;100050.03;5054954;28;20031;-77
2022/05/29 07:55:30;;;;;;;10.60;2.85;;;;;;;11.20;80.84;100050.94;5073116;28;20112;-74
2022/05/29 07:57:55;;;;;;;6.13;3.03;;;;;;;11.41;80.81;100046.00;5072983;28;20029;-76
2022/05/29 08:00:21;;;;;;;11.03;4.10;;;;;;;11.48;77.54;100041.34;5055178;28;20115;-75
2022/05/29 08:02:46;;;;;;;9.50;4.20;;;;;;;11.42;78.39;100044.97;5055206;28;20270;-76
2022/05/29 08:05:16;;;;;;;8.63;2.85;;;;;;;11.14;79.28;100042.66;5072771;28;20294;-76
2022/05/29 08:07:42;;;;;;;11.65;4.93;;;;;;;11.19;79.24;100041.19;5073072;28;20033;-76
2022/05/29 08:10:10;;;;;;;6.28;3.20;;;;;;;10.79;79.75;100049.50;5055256;28;20086;-76
2022/05/29 08:12:35;;;;;;;8.32;3.22;;;;;;;10.73;79.64;100043.13;5072954;28;20078;-75
2022/05/29 08:15:01;;;;;;;10.43;3.42;;;;;;;10.86;80.80;100047.59;5073617;28;20409;-75
2022/05/29 08:17:26;;;;;;;6.47;2.88;;;;;;;10.97;78.94;100044.22;5058921;28;20461;-75
2022/05/29 08:19:52;;;;;;;9.70;3.45;;;;;;;11.18;79.33;100039.53;5077247;28;20028;-75
2022/05/29 08:22:17;;;;;;;10.57;3.33;;;;;;;11.37;78.47;100038.56;5076548;28;20562;-75
2022/05/29 08:30:52;;;;;;;6.03;2.35;;;;;;;11.44;74.25;100029.38;5076308;28;20098;-75
2022/05/29 08:33:32;;;;;;;8.50;3.10;;;;;;;11.19;74.23;100033.91;5071979;28;20110;-75
2022/05/29 08:36:10;;;;;;;7.68;3.40;;;;;;;10.96;76.56;100036.34;5076425;28;20033;-75
2022/05/29 08:38:39;;;;;;;7.05;3.38;;;;;;;11.09;77.32;100026.31;5076700;28;20036;-75
2022/05/29 08:41:07;;;;;;;9.13;3.50;;;;;;;11.20;79.96;100026.66;5076466;28;20044;-75
2022/05/29 08:43:37;;;;;;;7.55;3.78;;;;;;;11.26;77.83;100023.09;5077269;28;20064;-76
2022/05/29 08:46:13;;;;;;;7.47;3.10;;;;;;;11.42;77.66;100027.94;5076775;28;20037;-76
2022/05/29 08:48:38;;;;;;;12.52;4.10;;;;;;;11.68;76.41;100022.31;5077284;28;20032;-76
2022/05/29 08:51:30;;;;;;;10.23;4.10;;;;;;;11.94;76.10;100017.75;5076659;28;20045;-76
2022/05/29 08:54:10;;;;;;;5.80;2.95;;;;;;;11.93;74.31;100016.09;5075888;28;20321;-75
2022/05/29 08:56:50;;;;;;;6.65;3.10;;;;;;;11.85;74.92;100019.88;5076828;28;20028;-76
2022/05/29 08:59:38;;;;;;;7.82;3.38;;;;;;;11.98;74.99;100014.38;5060204;28;20447;-76
2022/05/29 09:02:12;;;;;;;7.25;3.35;;;;;;;12.00;74.22;100011.44;5079012;28;20105;-75
2022/05/29 09:04:48;;;;;;;7.40;3.63;;;;;;;11.68;73.71;100013.38;5078086;28;20066;-75
2022/05/29 09:07:17;;;;;;;8.52;3.50;;;;;;;11.70;75.01;100025.59;5077721;28;20419;-75
2022/05/29 09:09:50;;;;;;;6.72;3.63;;;;;;;11.40;80.00;100022.75;5078849;28;20036;-75
2022/05/29 09:12:23;;;;;;;7.07;3.72;;;;;;;11.39;82.57;100021.13;5079108;28;20032;-76
2022/05/29 09:14:58;;;;;;;7.22;3.50;;;;;;;11.16;82.85;100012.78;5077040;28;20029;-76
2022/05/29 09:17:35;;;;;;;6.25;2.20;;;;;;;10.78;81.18;100024.41;5077378;28;20028;-75
2022/05/29 09:20:02;;;;;;;;;;;;;;;10.51;82.06;100025.59;5077332;28;20036;-76
2022/05/29 09:22:31;;;;;;;2.50;0.90;;;;;;;10.56;79.17;100019.59;5076295;28;19913;-75
2022/05/29 09:25:04;;;;;;;3.22;1.40;;;;;;;10.66;78.24;100015.38;5075915;28;20032;-75
2022/05/29 09:27:31;;;;;;;2.72;1.00;;;;;;;10.95;78.39;100019.34;5075089;28;20150;-76
2022/05/29 09:29:57;;;;;;;2.72;0.60;;;;;;;11.06;76.62;100015.97;5075998;28;20054;-77
2022/05/29 09:32:27;;;;;;;0.88;0.50;;;;;;;11.27;76.08;100019.34;5076000;28;20059;-76
2022/05/29 09:35:11;;;;;;;3.63;0.60;;;;;;;11.52;74.03;100016.63;5076463;28;20073;-76
2022/05/29 09:37:53;;;;;;;1.77;0.60;;;;;;;11.81;74.40;100011.44;5075618;28;20488;-76
2022/05/29 09:40:24;;;;;;;1.35;0.43;;;;;;;12.18;73.90;100006.84;5057512;28;20524;-76
2022/05/29 09:42:53;;;;;;;4.05;0.70;;;;;;;12.40;73.79;100001.00;5076003;28;20243;-76
2022/05/29 09:45:27;;;;;;;1.50;0.60;;;;;;;12.45;74.27;100004.66;5075268;28;20081;-76
2022/05/29 09:50:43;;;;;;;1.58;0.70;;;;;;;12.61;75.57;100002.38;5075582;28;20035;-76
2022/05/29 09:53:15;;;;;;;3.58;0.95;;;;;;;12.51;71.83;100006.47;5074838;28;20028;-76
2022/05/29 09:55:50;;;;;;;2.70;0.70;;;;;;;12.31;72.28;99996.97;5074999;28;20032;-77
2022/05/29 09:58:23;;;;;;;3.67;0.65;;;;;;;12.24;73.65;99994.31;5074748;28;20036;-76
2022/05/29 10:01:03;;;;;;;3.05;1.00;;;;;;;12.40;75.54;99990.19;5075019;28;20027;-76
2022/05/29 10:03:44;;;;;;;1.80;0.70;;;;;;;12.64;76.59;99996.53;5075705;28;20048;-74
2022/05/29 10:06:12;;;;;;;2.85;0.88;;;;;;;12.59;76.76;99997.22;5077126;28;20032;-77
2022/05/29 10:08:38;;;;;;;1.65;0.63;;;;;;;12.76;77.50;99997.41;5075014;28;20030;-76
2022/05/29 10:11:27;;;;;;;6.05;1.35;;;;;;;12.53;71.41;100000.84;5074764;28;20458;-76
2022/05/29 10:13:53;;;;;;;1.38;0.52;;;;;;;12.83;74.43;99998.97;5074660;28;20040;-76
2022/05/29 10:16:36;;;;;;;4.20;0.75;;;;;;;12.56;68.49;99989.56;5074746;28;20071;-76
2022/05/29 10:19:04;;;;;;;1.63;0.50;;;;;;;12.82;67.51;99986.50;5074730;28;20515;-76
2022/05/29 10:21:32;;;;;;;0.90;0.40;;;;;;;13.15;69.47;99987.91;5074021;28;20039;-76
2022/05/29 10:24:31;;;;;;;2.20;0.60;;;;;;;12.97;69.59;99988.78;5056710;28;20088;-76
2022/05/29 10:27:00;;;;;;;2.47;0.85;;;;;;;13.13;70.74;99976.47;5074667;28;20037;-76
2022/05/29 10:29:29;;;;;;;1.67;0.55;;;;;;;13.26;68.66;99980.84;5074731;28;20111;-75
2022/05/29 10:31:56;;;;;;;2.65;0.77;;;;;;;13.20;65.15;99979.94;5073631;28;20055;-76
2022/05/29 10:34:24;;;;;;;3.03;0.70;;;;;;;13.27;66.30;99975.22;5058214;28;20088;-76
2022/05/29 10:36:49;;;;;;;1.73;0.50;;;;;;;13.36;65.06;99975.72;5078796;28;20036;-75
2022/05/29 10:39:27;;;;;;;1.38;0.55;;;;;;;13.51;66.63;99976.06;5079358;28;20073;-75
2022/05/29 10:41:54;;;;;;;1.55;0.60;;;;;;;13.46;66.18;99974.06;5062614;28;20033;-77
2022/05/29 10:44:39;;;;;;;3.55;0.52;;;;;;;13.33;63.45;99966.16;5079597;28;20079;-76
2022/05/29 10:47:16;;;;;;;2.15;0.80;;;;;;;13.53;63.38;99977.47;5080440;28;20032;-76
2022/05/29 10:50:03;;;;;;;3.03;0.85;;;;;;;13.54;63.90;99965.59;5080481;28;20028;-76
2022/05/29 10:52:28;;;;;;;1.70;0.60;;;;;;;13.49;65.00;99973.59;5073703;28;20060;-77
2022/05/29 10:55:23;;;;;;;1.80;0.70;;;;;;;13.36;66.91;99973.81;5073845;28;20133;-76
2022/05/29 10:58:16;;;;;;;3.33;0.90;;;;;;;12.72;71.54;99971.91;5073943;28;20104;-76
2022/05/29 11:03:17;;;;;;;2.00;1.10;;;;;;;12.52;72.17;99966.75;5073974;28;20036;-75
2022/05/29 11:04:34;;;;;;;2.60;0.90;;;;;;;12.55;73.67;99963.56;5073289;28;20033;-75
2022/05/29 11:07:05;;;;;;;4.35;0.95;;;;;;;12.49;72.83;99959.09;5073799;28;20021;-76
2022/05/29 11:09:39;;;;;;;4.75;0.98;;;;;;;12.51;74.37;99963.22;5073418;28;20119;-75
2022/05/29 11:12:33;;;;;;;4.72;1.30;;;;;;;12.92;73.33;99958.88;5073390;28;20029;-75
2022/05/29 11:15:18;;;;;;;2.65;0.90;;;;;;;12.94;72.82;99953.25;5073193;28;20119;-75
2022/05/29 11:18:09;;;;;;;2.33;1.00;;;;;;;13.04;73.77;99940.00;5073503;28;20043;-75
2022/05/29 11:20:47;;;;;;;3.15;1.23;;;;;;;13.31;70.52;99943.09;5074898;28;20065;-76
2022/05/29 11:23:38;;;;;;;4.30;1.40;;;;;;;13.44;69.38;99932.88;5073330;28;20078;-75
2022/05/29 11:26:26;;;;;;;3.28;1.00;;;;;;;13.77;68.11;99926.88;5073272;28;20032;-75
2022/05/29 11:28:57;;;;;;;4.93;1.25;;;;;;;13.73;67.30;99914.84;5073506;28;20033;-76
2022/05/29 11:31:28;;;;;;;3.40;1.27;;;;;;;13.76;67.54;99925.22;5073439;28;20028;-76
2022/05/29 11:34:11;;;;;;;3.30;1.20;;;;;;;13.42;67.85;99915.25;5071551;28;20525;-76
2022/05/29 11:37:20;;;;;;;4.78;1.45;;;;;;;13.36;66.52;99913.47;5073485;28;20090;-76
2022/05/29 11:40:07;;;;;;;2.60;0.90;;;;;;;13.35;67.97;99909.94;5052079;28;20510;-76
2022/05/29 11:42:48;;;;;;;2.78;0.90;;;;;;;13.05;66.07;99911.91;5073693;28;20134;-76
2022/05/29 11:45:22;;;;;;;2.17;0.82;;;;;;;13.03;66.26;99911.31;5072894;28;20032;-76
2022/05/29 11:54:11;;;;;;;2.85;1.00;;;;;;;12.78;72.83;99933.09;5073255;28;20551;-77
2022/05/29 11:56:54;;;;;;;1.38;0.77;;;;;;;12.01;75.97;99934.78;5073511;28;20020;-76
2022/05/29 11:59:34;;;;;;;1.95;1.05;;;;;;;11.39;79.36;99937.47;5072378;28;20115;-76
2022/05/29 12:02:19;;;;;;;2.42;0.82;;;;;;;10.60;80.44;99945.34;5073316;28;20036;-75
2022/05/29 12:04:50;;;;;;;2.50;0.50;;;;;;;10.43;82.11;99939.66;5073040;28;20032;-75
2022/05/29 12:07:22;;;;;;;4.32;0.98;;;;;;;10.40;81.53;99937.38;5073688;28;20025;-76
2022/05/29 12:09:58;;;;;;;1.98;0.63;;;;;;;10.22;80.22;99932.69;5072926;28;20029;-76
2022/05/29 12:12:33;;;;;;;2.33;0.75;;;;;;;10.07;80.94;99934.81;5073631;28;20036;-76
2022/05/29 12:15:02;;;;;;;1.88;0.57;;;;;;;10.04;82.94;99928.00;5072761;28;20499;-76
2022/05/29 12:17:41;;;;;;;1.30;0.57;;;;;;;9.79;82.17;99919.00;5072997;28;20029;-76
2022/05/29 12:20:14;;;;;;;2.05;0.68;;;;;;;9.77;83.97;99910.31;5073418;28;20036;-76
2022/05/29 12:22:47;;;;;;;2.03;0.50;;;;;;;9.72;84.54;99904.72;5072803;28;20471;-76
2022/05/29 12:25:31;;;;;;;3.33;0.88;;;;;;;9.82;85.39;99905.13;5054912;28;20032;-76
2022/05/29 12:28:02;;;;;;;2.03;0.70;;;;;;;9.91;86.58;99909.22;5072934;28;20051;-75